createdAt,value
2022-09-07T00:00:11.069Z,15.92
2022-09-07T00:01:11.063Z,15.93
2022-09-07T00:02:11.065Z,15.88
2022-09-07T00:03:11.190Z,15.87
2022-09-07T00:04:11.105Z,15.93
2022-09-07T00:05:11.071Z,15.92
2022-09-07T00:06:11.060Z,15.92
2022-09-07T00:07:11.069Z,15.86
2022-09-07T00:08:11.072Z,15.88
2022-09-07T00:09:11.065Z,15.85
2022-09-07T00:10:11.063Z,15.84
2022-09-07T00:11:13.072Z,15.84
2022-09-07T00:12:11.065Z,15.77
2022-09-07T00:13:11.063Z,15.76
2022-09-07T00:14:11.071Z,15.70
2022-09-07T00:15:13.070Z,15.72
2022-09-07T00:16:15.139Z,15.75
2022-09-07T00:17:11.069Z,15.79
2022-09-07T00:18:11.072Z,15.80
2022-09-07T00:19:11.066Z,15.84
2022-09-07T00:20:11.062Z,15.82
2022-09-07T00:21:11.067Z,15.79
2022-09-07T00:22:11.059Z,15.80
2022-09-07T00:23:11.054Z,15.81
2022-09-07T00:24:11.061Z,15.81
2022-09-07T00:25:11.058Z,15.80
2022-09-07T00:26:11.057Z,15.77
2022-09-07T00:27:11.063Z,15.81
2022-09-07T00:28:11.061Z,15.84
2022-09-07T00:29:11.058Z,15.82
2022-09-07T00:30:11.061Z,15.82
2022-09-07T00:31:14.130Z,15.72
2022-09-07T00:32:11.061Z,15.71
2022-09-07T00:33:11.062Z,15.76
2022-09-07T00:34:11.061Z,15.70
2022-09-07T00:35:11.060Z,15.70
2022-09-07T00:36:11.057Z,15.73
2022-09-07T00:37:11.062Z,15.69
2022-09-07T00:38:11.063Z,15.70
2022-09-07T00:39:11.059Z,15.69
2022-09-07T00:40:11.120Z,15.70
2022-09-07T00:41:11.062Z,15.58
2022-09-07T00:42:11.059Z,15.58
2022-09-07T00:43:16.064Z,15.62
2022-09-07T00:44:19.063Z,15.60
2022-09-07T00:45:19.063Z,15.61
2022-09-07T00:46:18.138Z,15.55
2022-09-07T00:47:19.062Z,15.54
2022-09-07T00:48:15.077Z,15.59
2022-09-07T00:49:16.062Z,15.60
2022-09-07T00:50:16.064Z,15.60
2022-09-07T00:51:14.062Z,15.59
2022-09-07T00:52:11.071Z,15.64
2022-09-07T00:53:19.061Z,15.61
2022-09-07T00:54:14.063Z,15.63
2022-09-07T00:55:13.062Z,15.53
2022-09-07T00:56:11.078Z,15.51
2022-09-07T00:57:11.064Z,15.48
2022-09-07T00:58:11.062Z,15.50
2022-09-07T00:59:13.066Z,15.51
2022-09-07T01:00:11.064Z,15.55
2022-09-07T01:01:11.062Z,15.58
2022-09-07T01:02:11.192Z,15.53
2022-09-07T01:03:11.070Z,15.53
2022-09-07T01:04:11.063Z,15.50
2022-09-07T01:05:19.068Z,15.47
2022-09-07T01:06:16.073Z,15.50
2022-09-07T01:07:11.064Z,15.51
2022-09-07T01:08:11.064Z,15.55
2022-09-07T01:09:12.063Z,15.57
2022-09-07T01:10:11.069Z,15.55
2022-09-07T01:11:11.063Z,15.58
2022-09-07T01:12:11.066Z,15.59
2022-09-07T01:13:11.067Z,15.62
2022-09-07T01:14:11.065Z,15.66
2022-09-07T01:15:11.066Z,15.67
2022-09-07T01:16:21.118Z,15.66
2022-09-07T01:17:19.069Z,15.61
2022-09-07T01:18:21.070Z,15.63
2022-09-07T01:19:21.066Z,15.63
2022-09-07T01:20:19.057Z,15.64
2022-09-07T01:21:19.065Z,15.63
2022-09-07T01:22:19.070Z,15.64
2022-09-07T01:23:19.057Z,15.62
2022-09-07T01:24:21.055Z,15.60
2022-09-07T01:25:19.058Z,15.54
2022-09-07T01:26:19.065Z,15.53
2022-09-07T01:27:19.058Z,15.51
2022-09-07T01:28:20.059Z,15.48
2022-09-07T01:29:18.055Z,15.44
2022-09-07T01:30:14.057Z,15.48
2022-09-07T01:31:19.095Z,15.48
2022-09-07T01:32:21.060Z,15.43
2022-09-07T01:33:21.057Z,15.42
2022-09-07T01:34:19.055Z,15.43
2022-09-07T01:35:17.059Z,15.47
2022-09-07T01:36:19.072Z,15.50
2022-09-07T01:37:19.059Z,15.52
2022-09-07T01:38:19.058Z,15.52
2022-09-07T01:39:11.060Z,15.56
2022-09-07T01:40:21.077Z,15.57
2022-09-07T01:41:19.060Z,15.55
2022-09-07T01:42:12.059Z,15.56
2022-09-07T01:43:18.057Z,15.57
2022-09-07T01:44:19.060Z,15.57
2022-09-07T01:45:13.062Z,15.57
2022-09-07T01:46:18.121Z,15.58
2022-09-07T01:47:17.059Z,15.58
2022-09-07T01:48:14.062Z,15.58
2022-09-07T01:49:19.073Z,15.59
2022-09-07T01:50:19.065Z,15.54
2022-09-07T01:51:12.058Z,15.55
2022-09-07T01:52:16.065Z,15.55
2022-09-07T01:53:19.074Z,15.57
2022-09-07T01:54:17.062Z,15.58
2022-09-07T01:55:17.063Z,15.56
2022-09-07T01:56:17.061Z,15.57
2022-09-07T01:57:18.071Z,15.56
2022-09-07T01:58:21.062Z,15.53
2022-09-07T01:59:19.061Z,15.60
2022-09-07T02:00:15.059Z,15.62
2022-09-07T02:01:13.161Z,15.63
2022-09-07T02:02:17.133Z,15.68
2022-09-07T02:03:19.062Z,15.70
2022-09-07T02:04:14.065Z,15.70
2022-09-07T02:05:19.071Z,15.69
2022-09-07T02:06:21.063Z,15.72
2022-09-07T02:07:21.070Z,15.73
2022-09-07T02:08:19.062Z,15.71
2022-09-07T02:09:19.061Z,15.67
2022-09-07T02:10:18.062Z,15.66
2022-09-07T02:11:14.073Z,15.68
2022-09-07T02:12:16.063Z,15.62
2022-09-07T02:13:16.066Z,15.64
2022-09-07T02:14:19.072Z,15.63
2022-09-07T02:15:15.075Z,15.62
2022-09-07T02:16:19.104Z,15.63
2022-09-07T02:17:19.061Z,15.68
2022-09-07T02:18:11.066Z,15.72
2022-09-07T02:19:14.075Z,15.71
2022-09-07T02:20:17.066Z,15.77
2022-09-07T02:21:11.057Z,15.77
2022-09-07T02:22:15.058Z,15.77
2022-09-07T02:23:17.059Z,15.77
2022-09-07T02:24:19.060Z,15.70
2022-09-07T02:25:12.058Z,15.69
2022-09-07T02:26:16.063Z,15.66
2022-09-07T02:27:17.060Z,15.60
2022-09-07T02:28:12.061Z,15.65
2022-09-07T02:29:11.058Z,15.68
2022-09-07T02:30:11.061Z,15.66
2022-09-07T02:31:11.119Z,15.61
2022-09-07T02:32:11.058Z,15.55
2022-09-07T02:33:11.061Z,15.51
2022-09-07T02:34:11.069Z,15.55
2022-09-07T02:35:11.058Z,15.59
2022-09-07T02:36:11.061Z,15.57
2022-09-07T02:37:11.067Z,15.54
2022-09-07T02:38:11.061Z,15.53
2022-09-07T02:39:11.056Z,15.37
2022-09-07T02:40:11.121Z,15.40
2022-09-07T02:41:19.064Z,15.39
2022-09-07T02:42:11.060Z,15.37
2022-09-07T02:43:11.063Z,15.37
2022-09-07T02:44:19.067Z,15.36
2022-09-07T02:45:11.060Z,15.38
2022-09-07T02:46:21.143Z,15.39
2022-09-07T02:47:19.060Z,15.36
2022-09-07T02:48:21.068Z,15.39
2022-09-07T02:49:19.063Z,15.41
2022-09-07T02:50:19.064Z,15.43
2022-09-07T02:51:21.059Z,15.39
2022-09-07T02:52:23.062Z,15.40
2022-09-07T02:53:19.065Z,15.36
2022-09-07T02:54:19.075Z,15.36
2022-09-07T02:55:19.063Z,15.39
2022-09-07T02:56:21.060Z,15.37
2022-09-07T02:57:19.060Z,15.34
2022-09-07T02:58:19.061Z,15.36
2022-09-07T02:59:19.074Z,15.39
2022-09-07T03:00:15.063Z,15.38
2022-09-07T03:01:19.139Z,15.36
2022-09-07T03:02:19.115Z,15.38
2022-09-07T03:03:18.072Z,15.39
2022-09-07T03:04:19.067Z,15.32
2022-09-07T03:05:19.067Z,15.37
2022-09-07T03:06:17.064Z,15.45
2022-09-07T03:07:16.067Z,15.46
2022-09-07T03:08:21.075Z,15.50
2022-09-07T03:09:17.072Z,15.56
2022-09-07T03:10:11.064Z,15.59
2022-09-07T03:11:11.061Z,15.60
2022-09-07T03:12:11.067Z,15.54
2022-09-07T03:13:15.066Z,15.51
2022-09-07T03:14:17.077Z,15.54
2022-09-07T03:15:14.068Z,15.59
2022-09-07T03:16:14.170Z,15.61
2022-09-07T03:17:11.066Z,15.62
2022-09-07T03:18:11.063Z,15.61
2022-09-07T03:19:11.066Z,15.68
2022-09-07T03:20:11.074Z,15.69
2022-09-07T03:21:11.057Z,15.73
2022-09-07T03:22:11.060Z,15.78
2022-09-07T03:23:11.065Z,15.82
2022-09-07T03:24:11.057Z,15.79
2022-09-07T03:25:11.059Z,15.73
2022-09-07T03:26:19.071Z,15.72
2022-09-07T03:27:11.061Z,15.75
2022-09-07T03:28:11.060Z,15.72
2022-09-07T03:29:11.058Z,15.72
2022-09-07T03:30:11.063Z,15.78
2022-09-07T03:31:11.122Z,15.86
2022-09-07T03:32:11.059Z,15.92
2022-09-07T03:33:11.065Z,15.95
2022-09-07T03:34:11.059Z,15.96
2022-09-07T03:35:11.059Z,15.89
2022-09-07T03:36:11.061Z,15.86
2022-09-07T03:37:11.059Z,15.90
2022-09-07T03:38:11.059Z,15.90
2022-09-07T03:39:11.061Z,15.92
2022-09-07T03:40:11.182Z,15.89
2022-09-07T03:41:11.062Z,15.90
2022-09-07T03:42:11.061Z,15.94
2022-09-07T03:43:11.060Z,15.94
2022-09-07T03:44:11.062Z,15.93
2022-09-07T03:45:11.067Z,15.95
2022-09-07T03:46:11.132Z,16.01
2022-09-07T03:47:11.062Z,16.05
2022-09-07T03:48:11.073Z,16.01
2022-09-07T03:49:11.060Z,16.03
2022-09-07T03:50:11.062Z,15.94
2022-09-07T03:51:11.074Z,16.01
2022-09-07T03:52:11.162Z,16.02
2022-09-07T03:53:11.062Z,16.02
2022-09-07T03:54:11.070Z,16.06
2022-09-07T03:55:11.063Z,16.04
2022-09-07T03:56:12.065Z,16.06
2022-09-07T03:57:11.069Z,16.09
2022-09-07T03:58:11.068Z,16.14
2022-09-07T03:59:11.060Z,16.19
2022-09-07T04:00:11.063Z,16.08
2022-09-07T04:01:11.088Z,16.09
2022-09-07T04:02:11.100Z,16.14
2022-09-07T04:03:11.063Z,16.12
2022-09-07T04:04:11.064Z,16.15
2022-09-07T04:05:11.062Z,16.14
2022-09-07T04:06:11.064Z,16.12
2022-09-07T04:07:11.072Z,16.16
2022-09-07T04:08:11.063Z,16.22
2022-09-07T04:09:12.066Z,16.25
2022-09-07T04:10:11.066Z,16.25
2022-09-07T04:11:15.067Z,16.24
2022-09-07T04:12:11.064Z,16.24
2022-09-07T04:13:11.066Z,16.29
2022-09-07T04:14:11.066Z,16.32
2022-09-07T04:15:11.063Z,16.33
2022-09-07T04:16:18.126Z,16.33
2022-09-07T04:17:11.096Z,16.29
2022-09-07T04:18:11.068Z,16.28
2022-09-07T04:19:11.062Z,16.18
2022-09-07T04:20:11.070Z,16.24
2022-09-07T04:21:11.059Z,16.23
2022-09-07T04:22:11.057Z,16.26
2022-09-07T04:23:11.059Z,16.26
2022-09-07T04:24:11.061Z,16.30
2022-09-07T04:25:11.057Z,16.28
2022-09-07T04:26:18.058Z,16.30
2022-09-07T04:27:11.058Z,16.30
2022-09-07T04:28:11.062Z,16.27
2022-09-07T04:29:11.059Z,16.27
2022-09-07T04:30:11.063Z,16.29
2022-09-07T04:31:11.143Z,16.32
2022-09-07T04:32:15.501Z,16.33
2022-09-07T04:33:11.061Z,16.26
2022-09-07T04:34:11.067Z,16.27
2022-09-07T04:35:11.071Z,16.27
2022-09-07T04:36:11.057Z,16.28
2022-09-07T04:37:11.090Z,16.29
2022-09-07T04:38:13.061Z,16.30
2022-09-07T04:39:11.058Z,16.28
2022-09-07T04:40:11.126Z,16.30
2022-09-07T04:41:16.062Z,16.28
2022-09-07T04:42:11.062Z,16.27
2022-09-07T04:43:12.058Z,16.27
2022-09-07T04:44:13.694Z,16.29
2022-09-07T04:45:13.103Z,16.30
2022-09-07T04:46:16.147Z,16.31
2022-09-07T04:47:11.065Z,16.29
2022-09-07T04:48:11.072Z,16.30
2022-09-07T04:49:11.061Z,16.34
2022-09-07T04:50:11.064Z,16.35
2022-09-07T04:51:11.070Z,16.39
2022-09-07T04:52:11.065Z,16.41
2022-09-07T04:53:11.065Z,16.42
2022-09-07T04:54:11.065Z,16.39
2022-09-07T04:55:11.068Z,16.36
2022-09-07T04:56:15.012Z,16.40
2022-09-07T04:57:13.067Z,16.35
2022-09-07T04:58:11.065Z,16.32
2022-09-07T04:59:11.061Z,16.30
2022-09-07T05:00:13.065Z,16.30
2022-09-07T05:01:11.145Z,16.31
2022-09-07T05:02:11.226Z,16.31
2022-09-07T05:03:11.067Z,16.35
2022-09-07T05:04:11.079Z,16.37
2022-09-07T05:05:11.068Z,16.34
2022-09-07T05:06:11.061Z,16.37
2022-09-07T05:07:11.143Z,16.38
2022-09-07T05:08:11.066Z,16.38
2022-09-07T05:09:11.065Z,16.34
2022-09-07T05:10:11.067Z,16.27
2022-09-07T05:11:11.066Z,16.31
2022-09-07T05:12:11.065Z,16.34
2022-09-07T05:13:11.065Z,16.40
2022-09-07T05:14:11.075Z,16.39
2022-09-07T05:15:11.063Z,16.38
2022-09-07T05:16:11.115Z,16.41
2022-09-07T05:17:11.068Z,16.44
2022-09-07T05:18:11.068Z,16.43
2022-09-07T05:19:13.064Z,16.42
2022-09-07T05:20:11.065Z,16.39
2022-09-07T05:21:15.062Z,16.37
2022-09-07T05:22:11.058Z,16.38
2022-09-07T05:23:11.058Z,16.41
2022-09-07T05:24:11.060Z,16.43
2022-09-07T05:25:11.059Z,16.44
2022-09-07T05:26:11.060Z,16.43
2022-09-07T05:27:11.069Z,16.43
2022-09-07T05:28:11.059Z,16.41
2022-09-07T05:31:18.955Z,16.42
2022-09-07T05:32:11.060Z,16.41
2022-09-07T05:33:11.065Z,16.40
2022-09-07T05:34:32.998Z,16.43
2022-09-07T05:35:13.066Z,16.45
2022-09-07T05:36:11.063Z,16.46
2022-09-07T05:37:11.063Z,16.49
2022-09-07T05:38:11.070Z,16.47
2022-09-07T05:39:11.062Z,16.51
2022-09-07T05:40:11.106Z,16.49
2022-09-07T05:41:15.070Z,16.54
2022-09-07T05:42:11.062Z,16.55
2022-09-07T05:43:11.063Z,16.57
2022-09-07T05:45:13.093Z,16.53
2022-09-07T05:46:11.143Z,16.51
2022-09-07T05:47:11.088Z,16.45
2022-09-07T05:48:11.070Z,16.46
2022-09-07T05:49:11.066Z,16.47
2022-09-07T05:50:11.061Z,16.50
2022-09-07T05:51:11.065Z,16.52
2022-09-07T05:52:11.065Z,16.55
2022-09-07T05:53:11.065Z,16.56
2022-09-07T05:54:11.071Z,16.54
2022-09-07T05:55:28.944Z,16.53
2022-09-07T05:56:13.626Z,16.56
2022-09-07T05:57:12.066Z,16.58
2022-09-07T05:58:11.073Z,16.53
2022-09-07T05:59:11.065Z,16.53
2022-09-07T06:00:11.062Z,16.57
2022-09-07T06:01:11.068Z,16.55
2022-09-07T06:02:13.161Z,16.54
2022-09-07T06:03:11.245Z,16.53
2022-09-07T06:04:11.067Z,16.47
2022-09-07T06:05:11.075Z,16.44
2022-09-07T06:06:14.064Z,16.38
2022-09-07T06:07:21.711Z,16.37
2022-09-07T06:08:13.091Z,16.38
2022-09-07T06:09:11.075Z,16.42
2022-09-07T06:11:13.077Z,16.45
2022-09-07T06:12:11.069Z,16.47
2022-09-07T06:13:11.068Z,16.47
2022-09-07T06:14:11.066Z,16.50
2022-09-07T06:15:11.066Z,16.52
2022-09-07T06:16:11.105Z,16.51
2022-09-07T06:17:11.067Z,16.54
2022-09-07T06:18:11.067Z,16.57
2022-09-07T06:19:11.071Z,16.58
2022-09-07T06:20:11.067Z,16.53
2022-09-07T06:21:11.061Z,16.54
2022-09-07T06:22:11.070Z,16.52
2022-09-07T06:23:11.063Z,16.53
2022-09-07T06:24:11.060Z,16.53
2022-09-07T06:25:11.063Z,16.54
2022-09-07T06:26:11.062Z,16.56
2022-09-07T06:27:11.061Z,16.59
2022-09-07T06:28:11.062Z,16.58
2022-09-07T06:29:11.069Z,16.58
2022-09-07T06:30:11.063Z,16.66
2022-09-07T06:31:11.095Z,16.73
2022-09-07T06:33:14.325Z,16.74
2022-09-07T06:34:11.061Z,16.74
2022-09-07T06:35:11.065Z,16.74
2022-09-07T06:36:14.065Z,16.80
2022-09-07T06:37:11.061Z,16.82
2022-09-07T06:38:11.063Z,16.82
2022-09-07T06:39:11.070Z,16.85
2022-09-07T06:40:11.150Z,16.86
2022-09-07T06:42:13.082Z,16.87
2022-09-07T06:43:11.064Z,16.85
2022-09-07T06:44:11.064Z,16.83
2022-09-07T06:45:11.610Z,16.93
2022-09-07T06:47:13.341Z,16.92
2022-09-07T06:48:11.067Z,16.94
2022-09-07T06:49:11.073Z,16.96
2022-09-07T06:50:11.066Z,16.96
2022-09-07T06:51:18.062Z,17.02
2022-09-07T06:52:11.067Z,17.09
2022-09-07T06:53:34.975Z,17.12
2022-09-07T06:55:13.085Z,17.02
2022-09-07T06:56:12.068Z,17.08
2022-09-07T06:57:12.066Z,17.04
2022-09-07T06:58:11.065Z,17.06
2022-09-07T06:59:11.068Z,17.09
2022-09-07T07:00:11.067Z,17.10
2022-09-07T07:01:18.126Z,17.10
2022-09-07T07:02:13.066Z,17.05
2022-09-07T07:03:11.159Z,17.06
2022-09-07T07:04:11.069Z,17.00
2022-09-07T07:05:11.064Z,17.00
2022-09-07T07:06:11.075Z,16.99
2022-09-07T07:07:13.069Z,16.93
2022-09-07T07:08:11.065Z,16.90
2022-09-07T07:09:11.068Z,16.91
2022-09-07T07:10:11.068Z,16.96
2022-09-07T07:11:14.069Z,16.95
2022-09-07T07:12:11.135Z,16.98
2022-09-07T07:14:16.270Z,16.95
2022-09-07T07:15:11.064Z,16.93
2022-09-07T07:16:16.115Z,16.99
2022-09-07T07:17:11.071Z,17.04
2022-09-07T07:18:20.741Z,17.05
2022-09-07T07:19:13.075Z,17.04
2022-09-07T07:20:11.077Z,17.05
2022-09-07T07:21:13.061Z,17.07
2022-09-07T07:22:29.563Z,17.10
2022-09-07T07:23:13.085Z,17.13
2022-09-07T07:24:11.064Z,17.16
2022-09-07T07:25:11.056Z,17.17
2022-09-07T07:26:15.060Z,17.16
2022-09-07T07:27:11.064Z,17.22
2022-09-07T07:29:15.912Z,17.35
2022-09-07T07:30:13.077Z,17.40
2022-09-07T07:31:13.159Z,17.42
2022-09-07T07:32:11.062Z,17.40
2022-09-07T07:33:11.092Z,17.41
2022-09-07T07:34:11.119Z,17.45
2022-09-07T07:35:11.061Z,17.46
2022-09-07T07:36:19.061Z,17.48
2022-09-07T07:37:11.062Z,17.56
2022-09-07T07:42:13.341Z,17.69
2022-09-07T07:43:11.061Z,17.70
2022-09-07T07:44:11.061Z,17.75
2022-09-07T07:46:15.139Z,17.84
2022-09-07T07:47:11.060Z,17.91
2022-09-07T07:48:13.064Z,17.90
2022-09-07T07:49:11.091Z,17.84
2022-09-07T07:50:33.759Z,17.91
2022-09-07T07:51:13.341Z,17.89
2022-09-07T07:53:42.296Z,17.94
2022-09-07T07:54:13.078Z,17.99
2022-09-07T07:56:13.085Z,18.07
2022-09-07T07:57:11.066Z,18.10
2022-09-07T07:58:11.060Z,18.15
2022-09-07T07:59:15.509Z,18.17
2022-09-07T08:00:11.065Z,18.17
2022-09-07T08:01:12.120Z,18.17
2022-09-07T08:02:15.285Z,18.13
2022-09-07T08:03:11.067Z,18.18
2022-09-07T08:04:11.068Z,18.22
2022-09-07T08:05:11.065Z,18.18
2022-09-07T08:06:11.073Z,18.26
2022-09-07T08:07:11.404Z,18.30
2022-09-07T08:08:11.065Z,18.33
2022-09-07T08:09:11.072Z,18.39
2022-09-07T08:10:11.067Z,18.33
2022-09-07T08:11:12.065Z,18.36
2022-09-07T08:12:12.072Z,18.43
2022-09-07T08:13:11.067Z,18.49
2022-09-07T08:14:11.064Z,18.52
2022-09-07T08:15:11.067Z,18.48
2022-09-07T08:16:11.118Z,18.51
2022-09-07T08:17:11.065Z,18.54
2022-09-07T08:18:11.069Z,18.61
2022-09-07T08:19:11.076Z,18.68
2022-09-07T08:20:11.065Z,18.75
2022-09-07T08:21:12.059Z,18.75
2022-09-07T08:22:11.067Z,18.65
2022-09-07T08:23:11.061Z,18.63
2022-09-07T08:24:11.060Z,18.61
2022-09-07T08:25:11.060Z,18.59
2022-09-07T08:26:11.060Z,18.54
2022-09-07T08:27:11.058Z,18.64
2022-09-07T08:28:11.060Z,18.64
2022-09-07T08:29:11.061Z,18.66
2022-09-07T08:30:11.060Z,18.64
2022-09-07T08:31:11.119Z,18.73
2022-09-07T08:32:11.068Z,18.74
2022-09-07T08:33:11.057Z,18.81
2022-09-07T08:34:11.061Z,18.76
2022-09-07T08:35:11.062Z,18.82
2022-09-07T08:36:15.060Z,18.82
2022-09-07T08:37:11.062Z,18.86
2022-09-07T08:38:11.070Z,18.85
2022-09-07T08:39:11.063Z,18.74
2022-09-07T08:40:16.143Z,18.77
2022-09-07T08:41:21.068Z,18.88
2022-09-07T08:42:21.063Z,18.96
2022-09-07T08:43:19.063Z,18.97
2022-09-07T08:44:21.063Z,18.89
2022-09-07T08:45:21.065Z,18.77
2022-09-07T08:46:19.092Z,18.74
2022-09-07T08:47:19.071Z,18.78
2022-09-07T08:48:14.065Z,18.86
2022-09-07T08:49:21.061Z,18.92
2022-09-07T08:50:21.061Z,19.00
2022-09-07T08:51:24.197Z,19.03
2022-09-07T08:52:17.062Z,19.04
2022-09-07T08:53:13.097Z,18.95
2022-09-07T08:54:12.064Z,18.88
2022-09-07T08:55:21.062Z,18.99
2022-09-07T08:56:18.067Z,19.04
2022-09-07T08:57:23.134Z,19.06
2022-09-07T08:58:45.138Z,19.23
2022-09-07T08:59:21.329Z,19.45
2022-09-07T09:00:14.063Z,19.52
2022-09-07T09:01:33.635Z,19.53
2022-09-07T09:02:35.161Z,19.66
2022-09-07T09:03:30.092Z,19.71
2022-09-07T09:04:21.674Z,19.78
2022-09-07T09:05:21.274Z,19.80
2022-09-07T09:06:19.190Z,19.89
2022-09-07T09:07:19.068Z,19.98
2022-09-07T09:08:21.068Z,20.01
2022-09-07T09:09:21.080Z,20.08
2022-09-07T09:10:19.067Z,20.11
2022-09-07T09:11:21.064Z,20.10
2022-09-07T09:12:19.063Z,20.03
2022-09-07T09:13:16.066Z,19.92
2022-09-07T09:14:21.141Z,19.86
2022-09-07T09:15:19.068Z,19.82
2022-09-07T09:16:17.140Z,19.88
2022-09-07T09:17:16.064Z,19.98
2022-09-07T09:18:21.070Z,20.01
2022-09-07T09:19:21.075Z,20.00
2022-09-07T09:20:19.058Z,20.02
2022-09-07T09:21:17.059Z,20.10
2022-09-07T09:22:17.056Z,20.06
2022-09-07T09:23:14.058Z,19.96
2022-09-07T09:24:18.060Z,20.24
2022-09-07T09:25:19.058Z,20.24
2022-09-07T09:26:15.057Z,20.33
2022-09-07T09:27:11.063Z,20.35
2022-09-07T09:28:13.060Z,20.33
2022-09-07T09:29:18.057Z,20.33
2022-09-07T09:30:15.132Z,20.51
2022-09-07T09:31:18.101Z,20.71
2022-09-07T09:32:19.060Z,20.85
2022-09-07T09:33:19.060Z,21.02
2022-09-07T09:34:15.064Z,21.03
2022-09-07T09:35:21.068Z,20.99
2022-09-07T09:36:19.062Z,21.08
2022-09-07T09:37:13.062Z,21.01
2022-09-07T09:38:19.057Z,20.86
2022-09-07T09:39:19.062Z,20.84
2022-09-07T09:40:19.125Z,20.58
2022-09-07T09:41:15.064Z,20.69
2022-09-07T09:42:15.060Z,20.49
2022-09-07T09:43:19.063Z,20.59
2022-09-07T09:44:15.061Z,20.45
2022-09-07T09:45:18.066Z,20.49
2022-09-07T09:46:19.193Z,20.42
2022-09-07T09:47:32.261Z,20.48
2022-09-07T09:48:13.086Z,20.53
2022-09-07T09:49:17.069Z,20.50
2022-09-07T09:52:42.245Z,20.31
2022-09-07T09:53:21.072Z,20.36
2022-09-07T09:54:19.060Z,20.58
2022-09-07T09:55:33.866Z,20.60
2022-09-07T09:56:13.058Z,20.61
2022-09-07T09:57:17.066Z,20.75
2022-09-07T10:00:27.910Z,20.75
2022-09-07T10:01:22.352Z,20.85
2022-09-07T10:04:24.627Z,20.76
2022-09-07T10:05:21.063Z,20.81
2022-09-07T10:06:16.063Z,20.73
2022-09-07T10:07:21.068Z,20.66
2022-09-07T10:08:21.075Z,20.55
2022-09-07T10:09:17.068Z,20.49
2022-09-07T10:10:15.064Z,20.40
2022-09-07T10:11:11.062Z,20.34
2022-09-07T10:12:19.076Z,20.33
2022-09-07T10:13:20.068Z,20.26
2022-09-07T10:14:18.068Z,20.21
2022-09-07T10:15:19.067Z,20.16
2022-09-07T10:16:11.134Z,20.21
2022-09-07T10:17:21.074Z,20.22
2022-09-07T10:18:21.077Z,20.19
2022-09-07T10:19:19.068Z,20.15
2022-09-07T10:20:19.056Z,20.16
2022-09-07T10:21:19.062Z,20.10
2022-09-07T10:22:19.057Z,20.11
2022-09-07T10:23:19.066Z,20.15
2022-09-07T10:24:15.067Z,20.05
2022-09-07T10:25:19.060Z,20.06
2022-09-07T10:26:19.058Z,20.12
2022-09-07T10:27:19.060Z,20.16
2022-09-07T10:28:21.284Z,20.32
2022-09-07T10:29:19.072Z,20.46
2022-09-07T10:30:16.061Z,20.46
2022-09-07T10:31:21.102Z,20.45
2022-09-07T10:32:19.055Z,20.45
2022-09-07T10:33:22.059Z,20.46
2022-09-07T10:34:26.462Z,20.44
2022-09-07T10:35:21.135Z,20.38
2022-09-07T10:36:21.062Z,20.41
2022-09-07T10:37:11.059Z,20.30
2022-09-07T10:38:18.060Z,20.19
2022-09-07T10:39:16.083Z,20.09
2022-09-07T10:40:21.144Z,20.03
2022-09-07T10:41:11.062Z,19.81
2022-09-07T10:42:19.058Z,19.71
2022-09-07T10:43:21.793Z,19.61
2022-09-07T10:44:17.069Z,19.62
2022-09-07T10:45:18.065Z,19.62
2022-09-07T10:47:21.119Z,19.55
2022-09-07T10:48:19.062Z,19.55
2022-09-07T10:49:17.070Z,19.56
2022-09-07T10:50:22.788Z,19.45
2022-09-07T10:51:23.353Z,19.41
2022-09-07T10:52:23.063Z,19.45
2022-09-07T10:53:40.030Z,19.49
2022-09-07T10:54:32.224Z,19.49
2022-09-07T10:55:23.066Z,19.55
2022-09-07T10:56:18.062Z,19.59
2022-09-07T10:57:19.059Z,19.51
2022-09-07T10:58:19.398Z,19.64
2022-09-07T10:59:19.078Z,19.72
2022-09-07T11:00:16.065Z,19.87
2022-09-07T11:01:19.117Z,20.03
2022-09-07T11:02:21.122Z,20.25
2022-09-07T11:03:26.651Z,20.39
2022-09-07T11:04:19.066Z,20.49
2022-09-07T11:05:19.066Z,20.65
2022-09-07T11:06:19.072Z,20.73
2022-09-07T11:07:19.062Z,20.54
2022-09-07T11:08:21.066Z,20.34
2022-09-07T11:09:19.861Z,20.35
2022-09-07T11:10:19.067Z,20.31
2022-09-07T11:12:00.693Z,20.25
2022-09-07T11:12:23.790Z,20.27
2022-09-07T11:13:17.095Z,20.22
2022-09-07T11:14:15.068Z,20.23
2022-09-07T11:15:17.069Z,20.19
2022-09-07T11:17:18.073Z,20.28
2022-09-07T11:18:17.065Z,20.28
2022-09-07T11:19:36.981Z,20.33
2022-09-07T11:20:21.099Z,20.26
2022-09-07T11:21:14.650Z,20.24
2022-09-07T11:22:22.058Z,20.25
2022-09-07T11:23:19.053Z,20.29
2022-09-07T11:24:20.056Z,20.21
2022-09-07T11:25:31.622Z,20.26
2022-09-07T11:26:21.086Z,20.32
2022-09-07T11:27:18.056Z,20.38
2022-09-07T11:28:17.055Z,20.55
2022-09-07T11:29:30.844Z,20.65
2022-09-07T11:30:21.081Z,20.80
2022-09-07T11:31:21.091Z,20.88
2022-09-07T11:32:17.059Z,20.96
2022-09-07T11:33:19.057Z,21.05
2022-09-07T11:34:26.030Z,21.12
2022-09-07T11:35:21.077Z,21.15
2022-09-07T11:36:18.068Z,21.14
2022-09-07T11:37:20.061Z,21.04
2022-09-07T11:38:21.059Z,21.03
2022-09-07T11:39:16.056Z,20.96
2022-09-07T11:40:19.062Z,20.98
2022-09-07T11:41:19.066Z,20.98
2022-09-07T11:42:43.696Z,20.96
2022-09-07T11:43:21.080Z,20.94
2022-09-07T11:44:19.063Z,20.93
2022-09-07T11:45:16.067Z,20.90
2022-09-07T11:46:19.106Z,20.88
2022-09-07T11:47:17.061Z,20.89
2022-09-07T11:48:21.061Z,20.93
2022-09-07T11:49:19.069Z,21.00
2022-09-07T11:50:18.063Z,21.08
2022-09-07T11:51:19.060Z,21.16
2022-09-07T11:52:19.059Z,21.11
2022-09-07T11:53:17.062Z,21.25
2022-09-07T11:54:19.064Z,21.36
2022-09-07T11:55:19.064Z,21.40
2022-09-07T11:56:19.062Z,21.45
2022-09-07T11:57:19.064Z,21.54
2022-09-07T11:58:19.072Z,21.57
2022-09-07T11:59:21.066Z,21.56
2022-09-07T12:00:20.064Z,21.60
2022-09-07T12:01:19.064Z,21.70
2022-09-07T12:02:32.241Z,21.76
2022-09-07T12:03:22.812Z,21.80
2022-09-07T12:04:23.149Z,21.90
2022-09-07T12:05:19.067Z,21.91
2022-09-07T12:06:19.069Z,21.93
2022-09-07T12:07:21.067Z,22.00
2022-09-07T12:08:21.065Z,22.00
2022-09-07T12:09:17.067Z,21.93
2022-09-07T12:10:21.067Z,21.99
2022-09-07T12:11:22.602Z,22.00
2022-09-07T12:12:19.066Z,21.91
2022-09-07T12:13:21.077Z,21.99
2022-09-07T12:14:19.071Z,22.13
2022-09-07T12:15:21.068Z,22.11
2022-09-07T12:16:17.183Z,22.12
2022-09-07T12:17:21.066Z,22.23
2022-09-07T12:18:21.069Z,22.27
2022-09-07T12:19:22.067Z,22.27
2022-09-07T12:20:18.075Z,22.23
2022-09-07T12:21:21.058Z,22.01
2022-09-07T12:22:19.060Z,22.10
2022-09-07T12:23:21.060Z,22.11
2022-09-07T12:24:19.060Z,21.96
2022-09-07T12:25:15.067Z,21.91
2022-09-07T12:26:19.063Z,21.94
2022-09-07T12:27:19.062Z,21.89
2022-09-07T12:28:21.987Z,21.93
2022-09-07T12:29:21.070Z,21.87
2022-09-07T12:30:19.063Z,21.87
2022-09-07T12:31:13.088Z,21.92
2022-09-07T12:33:21.109Z,21.96
2022-09-07T12:34:19.063Z,21.86
2022-09-07T12:35:19.059Z,21.82
2022-09-07T12:36:19.061Z,21.79
2022-09-07T12:37:19.060Z,21.67
2022-09-07T12:38:21.067Z,21.66
2022-09-07T12:39:19.064Z,21.57
2022-09-07T12:40:19.062Z,21.60
2022-09-07T12:41:19.061Z,21.57
2022-09-07T12:42:37.449Z,21.65
2022-09-07T12:43:21.094Z,21.65
2022-09-07T12:44:19.063Z,21.69
2022-09-07T12:45:19.061Z,21.67
2022-09-07T12:46:19.129Z,21.60
2022-09-07T12:47:21.609Z,21.47
2022-09-07T12:48:21.070Z,21.46
2022-09-07T12:49:19.065Z,21.31
2022-09-07T12:50:21.062Z,21.28
2022-09-07T12:51:59.650Z,21.23
2022-09-07T12:52:23.362Z,21.31
2022-09-07T12:53:19.068Z,21.30
2022-09-07T12:54:21.078Z,21.45
2022-09-07T12:55:27.145Z,21.52
2022-09-07T12:56:23.064Z,21.56
2022-09-07T12:57:31.323Z,21.63
2022-09-07T12:58:23.281Z,21.71
2022-09-07T12:59:20.094Z,21.87
2022-09-07T13:00:21.067Z,21.97
2022-09-07T13:01:21.190Z,21.98
2022-09-07T13:02:19.169Z,22.01
2022-09-07T13:03:50.165Z,22.05
2022-09-07T13:04:23.328Z,22.01
2022-09-07T13:05:21.075Z,21.91
2022-09-07T13:06:19.297Z,21.94
2022-09-07T13:07:21.066Z,21.95
2022-09-07T13:08:19.066Z,22.04
2022-09-07T13:09:19.069Z,22.03
2022-09-07T13:10:21.073Z,21.92
2022-09-07T13:11:21.070Z,21.86
2022-09-07T13:14:01.908Z,21.89
2022-09-07T13:14:21.084Z,21.83
2022-09-07T13:15:24.013Z,21.86
2022-09-07T13:16:23.923Z,21.87
2022-09-07T13:17:21.199Z,21.85
2022-09-07T13:18:19.069Z,21.84
2022-09-07T13:19:16.393Z,21.82